Tuesday, June 28, 2016, 7:24 AM EDT

KESN, Easton / Newman Field

Location: Easton, MD, United States Lat: 38.8
Local Time: 7:24 AM EDT (11:24 GMT) Lon: -76.067
Time Zone: US/Eastern Elev: 72 ft

Show me the last for .
Show Decoded

2016-06-28 06:45 METAR KESN 281045Z 19004KT 6SM -DZ SCT008 BKN014 BKN028 23/23 A2998 =
2016-06-28 05:50 METAR KESN 280950Z AUTO 20004KT 10SM DZ SCT007 SCT013 BKN046 24/24 A2997 RMK AO2
                 P0004 T02350235 =
2016-06-28 05:46 METAR KESN 280946Z AUTO 20005KT 10SM RA SCT005 SCT011 BKN018 23/23 A2997 RMK AO2
                 P0004 T02340234 =
2016-06-28 05:45 METAR KESN 280945Z 20007KT 3SM RA SCT005 BKN011 BKN046 23/23 A2997 =
2016-06-28 05:26 METAR KESN 280926Z AUTO 22007KT 7SM RA SCT007 BKN012 BKN019 24/24 A2997 RMK AO2
                 P0002 T02350235 =
2016-06-28 05:06 METAR KESN 280906Z AUTO 21003KT 7SM -RA SCT005 SCT009 BKN039 24/24 A2997 RMK AO2
                 P0001 T02350235 =
2016-06-28 04:46 METAR KESN 280846Z AUTO 22003KT 7SM RA SCT012 BKN037 BKN050 24/24 A2997 RMK AO2
                 P0005 T02350235 =
2016-06-28 04:26 METAR KESN 280826Z AUTO 22003KT 7SM -RA BKN012 OVC022 24/24 A2997 RMK AO2 P0004
                 T02350235 =
2016-06-28 04:06 METAR KESN 280806Z AUTO 21007KT 5SM RA OVC015 24/24 A2996 RMK AO2 P0001
                 T02350235 =
2016-06-28 03:46 METAR KESN 280746Z AUTO 23007KT 7SM RA BKN013 OVC019 24/24 A2997 RMK AO2 P0005
                 T02360236 =
2016-06-28 03:26 METAR KESN 280726Z AUTO 22005KT 10SM -RA SCT012 SCT021 SCT060 24/24 A2998 RMK
                 AO2 P0001 T02370237 =
2016-06-28 03:06 METAR KESN 280706Z AUTO 21005KT 7SM -RA BKN009 BKN015 BKN020 24/24 A2999 RMK AO2
                 P0001 T02370237 =
2016-06-28 02:46 METAR KESN 280646Z AUTO 25005KT 3SM +RA BKN007 OVC012 24/24 A3000 RMK AO2 P0032
                 T02350235 =
2016-06-28 02:26 METAR KESN 280626Z AUTO 22008KT 10SM SCT007 SCT011 BKN032 24/24 A2999 RMK AO2
                 T02370237 =
2016-06-28 02:06 METAR KESN 280606Z AUTO 21009G14KT 10SM -RA SCT008 BKN016 OVC050 24/24 A2999 RMK
                 AO2 T02350235 =
2016-06-28 01:46 METAR KESN 280546Z AUTO 21011KT 3SM +RA SCT006 BKN014 OVC048 24/24 A3000 RMK AO2
                 P0016 T02350235 =
2016-06-28 01:26 METAR KESN 280526Z AUTO 22012KT 10SM BKN044 BKN055 25/23 A3000 RMK AO2 T02500234
                 =
2016-06-28 01:05 METAR KESN 280505Z AUTO 20007KT 10SM BKN043 BKN050 25/22 A3000 RMK AO2 T02470223
                 =
2016-06-28 00:45 METAR KESN 280445Z AUTO 20006KT 10SM SCT041 SCT050 25/22 A2999 RMK AO2 T02470220
                 =
2016-06-28 00:25 METAR KESN 280425Z AUTO 19007KT 10SM CLR 25/22 A3000 RMK AO2 T02480216 =
2016-06-28 00:05 METAR KESN 280405Z AUTO 19006KT 10SM CLR 25/21 A3001 RMK AO2 T02500213 =
2016-06-27 23:45 METAR KESN 280345Z AUTO 19005KT 10SM CLR 25/21 A3001 RMK AO2 T02500210 =
2016-06-27 23:25 METAR KESN 280325Z AUTO 17007KT 10SM CLR 25/21 A3001 RMK AO2 T02510211 =
2016-06-27 23:05 METAR KESN 280305Z AUTO 18005KT 10SM CLR 26/21 A3002 RMK AO2 T02550213 =
2016-06-27 22:45 METAR KESN 280245Z AUTO 19007KT 10SM CLR 26/22 A3003 RMK AO2 T02580215 =
2016-06-27 22:25 METAR KESN 280225Z AUTO 18006KT 10SM SCT044 SCT075 26/22 A3003 RMK AO2 T02610215
                 =
2016-06-27 22:05 METAR KESN 280205Z AUTO 18007KT 10SM SCT046 27/22 A3003 RMK AO2 T02650215 =
2016-06-27 20:50 METAR KESN 280050Z 17005KT 10SM BKN075 OVC120 27/22 A3002 =
2016-06-27 19:50 METAR KESN 272350Z 18007KT 10SM BKN100 OVC150 28/20 A3002 =
2016-06-27 18:50 METAR KESN 272250Z 18010KT 10SM BKN150 OVC200 29/18 A3002 =
2016-06-27 17:50 METAR KESN 272150Z 19010KT 10SM BKN200 29/20 A3001 =
2016-06-27 16:50 METAR KESN 272050Z 20008KT 10SM SCT250 30/21 A3001 =
2016-06-27 15:50 METAR KESN 271950Z 20010KT 10SM SCT250 30/20 A3004 =
2016-06-27 14:50 METAR KESN 271850Z 23009G16KT 10SM SCT250 30/20 A3005 =
2016-06-27 13:50 METAR KESN 271750Z 22010KT 10SM SCT250 30/19 A3007 =
2016-06-27 12:45 METAR KESN 271645Z 21006KT 10SM SCT250 29/20 A3010 =
2016-06-27 11:55 METAR KESN 271555Z 24006KT 10SM SCT250 28/20 A3011 =
2016-06-27 10:55 METAR KESN 271455Z 22004KT 10SM SCT250 27/21 A3012 =
2016-06-27 09:50 METAR KESN 271350Z 25006KT 10SM SCT250 25/21 A3014 =
2016-06-27 08:45 METAR KESN 271245Z 17005KT 10SM SCT040 BKN070 22/22 A3014 =
2016-06-27 07:45 METAR KESN 271145Z 16004KT 4SM OVC080 20/20 A3015 =

Support USWX by starting your Amazon purchase here.